createdAt,value
2023-03-29T00:03:52.067Z,-1.77
2023-03-29T00:08:55.170Z,-2.80
2023-03-29T00:13:57.957Z,0.29
2023-03-29T00:19:00.868Z,2.68
2023-03-29T00:24:03.972Z,0.10
2023-03-29T00:29:06.875Z,-1.57
2023-03-29T00:34:09.982Z,-1.79
2023-03-29T00:39:12.888Z,2.54
2023-03-29T00:44:34.780Z,1.33
2023-03-29T00:49:37.844Z,-0.99
2023-03-29T00:54:43.729Z,-2.16
2023-03-29T00:59:48.484Z,-3.03
2023-03-29T01:05:16.053Z,-0.26
2023-03-29T01:10:25.410Z,2.39
2023-03-29T01:15:29.525Z,-0.34
2023-03-29T01:20:51.177Z,-1.92
2023-03-29T01:26:01.302Z,-2.91
2023-03-29T01:31:09.876Z,-0.42
2023-03-29T01:36:17.522Z,2.65
2023-03-29T01:41:20.738Z,0.11
2023-03-29T01:46:43.994Z,-1.69
2023-03-29T01:51:53.555Z,-0.38
2023-03-29T01:56:58.622Z,2.90
2023-03-29T02:02:05.628Z,0.38
2023-03-29T02:07:10.839Z,-1.38
2023-03-29T02:12:17.147Z,-2.51
2023-03-29T02:17:20.003Z,-3.38
2023-03-29T02:22:28.646Z,-0.84
2023-03-29T02:27:31.905Z,2.64
2023-03-29T02:32:50.378Z,0.16
2023-03-29T02:37:56.221Z,-1.78
2023-03-29T02:43:02.117Z,-0.66
2023-03-29T02:48:08.247Z,2.83
2023-03-29T02:53:23.185Z,0.43
2023-03-29T02:58:26.817Z,-1.47
2023-03-29T03:03:29.952Z,0.29
2023-03-29T03:08:33.225Z,2.76
2023-03-29T03:13:36.530Z,0.11
2023-03-29T03:18:39.337Z,-1.56
2023-03-29T03:23:42.242Z,-2.59
2023-03-29T03:28:45.961Z,-1.04
2023-03-29T03:33:49.175Z,2.90
2023-03-29T03:38:53.385Z,0.67
2023-03-29T03:43:56.616Z,-1.40
2023-03-29T03:48:59.719Z,-1.50
2023-03-29T03:54:02.628Z,2.76
2023-03-29T03:59:05.680Z,1.09
2023-03-29T04:04:09.457Z,-1.15
2023-03-29T04:09:13.190Z,-0.12
2023-03-29T04:14:16.899Z,3.03
2023-03-29T04:19:20.182Z,0.42
2023-03-29T04:24:24.447Z,-1.34
2023-03-29T04:29:29.196Z,-0.14
2023-03-29T04:34:32.106Z,3.35
2023-03-29T04:39:35.117Z,0.97
2023-03-29T04:44:38.063Z,-0.83
2023-03-29T04:49:41.438Z,-1.45
2023-03-29T04:54:44.226Z,2.59
2023-03-29T04:59:47.144Z,2.72
2023-03-29T05:04:50.680Z,0.32
2023-03-29T05:09:53.969Z,-0.83
2023-03-29T05:14:57.697Z,2.60
2023-03-29T05:20:01.500Z,3.37
2023-03-29T05:25:05.481Z,0.84
2023-03-29T05:30:09.180Z,-0.57
2023-03-29T05:35:12.546Z,1.17
2023-03-29T05:40:15.876Z,4.22
2023-03-29T05:45:19.260Z,2.28
2023-03-29T05:50:22.310Z,1.79
2023-03-29T05:55:25.184Z,4.43
2023-03-29T06:00:30.341Z,2.46
2023-03-29T06:05:35.353Z,3.47
2023-03-29T06:10:39.765Z,3.69
2023-03-29T06:15:42.637Z,2.13
2023-03-29T06:20:49.442Z,4.93
2023-03-29T06:25:52.371Z,3.30
2023-03-29T06:31:04.127Z,2.77
2023-03-29T06:36:08.334Z,3.73
2023-03-29T06:41:11.830Z,2.40
2023-03-29T06:46:16.263Z,4.93
2023-03-29T06:51:21.209Z,3.18
2023-03-29T06:56:26.466Z,3.61
2023-03-29T07:01:29.341Z,4.80
2023-03-29T07:06:32.200Z,2.93
2023-03-29T07:11:35.914Z,4.87
2023-03-29T07:16:39.185Z,3.90
2023-03-29T07:21:42.877Z,3.86
2023-03-29T07:27:00.080Z,5.84
2023-03-29T07:32:06.632Z,3.64
2023-03-29T07:37:09.518Z,5.05
2023-03-29T07:42:12.474Z,5.86
2023-03-29T07:47:15.708Z,4.13
2023-03-29T07:52:18.934Z,3.44
2023-03-29T07:57:23.845Z,7.08
2023-03-29T08:02:27.471Z,7.26
2023-03-29T08:07:30.497Z,4.98
2023-03-29T08:12:33.378Z,3.95
2023-03-29T08:17:36.944Z,4.46
2023-03-29T08:22:40.584Z,7.21
2023-03-29T08:27:43.594Z,5.63
2023-03-29T08:32:49.311Z,4.74
2023-03-29T08:37:54.817Z,4.12
2023-03-29T08:43:19.850Z,3.69
2023-03-29T08:48:29.763Z,5.57
2023-03-29T08:53:44.407Z,6.53
2023-03-29T08:58:50.571Z,5.29
2023-03-29T09:04:00.464Z,4.48
2023-03-29T09:09:11.289Z,4.10
2023-03-29T09:14:30.060Z,3.95
2023-03-29T09:20:05.129Z,3.90
2023-03-29T09:25:27.542Z,3.88
2023-03-29T09:30:49.458Z,3.86
2023-03-29T09:36:04.613Z,3.95
2023-03-29T09:41:23.541Z,3.98
2023-03-29T09:46:32.829Z,4.01
2023-03-29T09:51:39.259Z,4.02
2023-03-29T09:56:45.963Z,4.03
2023-03-29T10:01:49.174Z,4.11
2023-03-29T10:06:52.805Z,4.18
2023-03-29T10:11:57.284Z,4.22
2023-03-29T10:17:00.427Z,4.36
2023-03-29T10:22:22.067Z,4.45
2023-03-29T10:27:28.179Z,4.52
2023-03-29T10:32:36.325Z,4.56
2023-03-29T10:37:50.534Z,4.61
2023-03-29T10:42:57.876Z,4.65
2023-03-29T10:48:01.732Z,4.71
2023-03-29T10:53:30.078Z,4.79
2023-03-29T10:59:09.410Z,4.87
2023-03-29T11:04:46.772Z,4.92
2023-03-29T11:10:11.324Z,4.98
2023-03-29T11:15:32.698Z,5.10
2023-03-29T11:21:02.246Z,5.16
2023-03-29T11:26:28.441Z,5.33
2023-03-29T11:31:31.341Z,5.43
2023-03-29T11:36:50.602Z,5.49
2023-03-29T11:42:00.035Z,5.63
2023-03-29T11:47:11.487Z,5.71
2023-03-29T11:52:36.912Z,5.82
2023-03-29T11:57:53.886Z,5.98
2023-03-29T12:03:07.680Z,6.09
2023-03-29T12:08:24.986Z,6.19
2023-03-29T12:13:36.847Z,6.33
2023-03-29T12:18:47.857Z,6.46
2023-03-29T12:23:52.015Z,6.54
2023-03-29T12:29:09.768Z,6.60
2023-03-29T12:34:15.248Z,6.76
2023-03-29T12:39:20.415Z,6.85
2023-03-29T12:44:24.380Z,6.98
2023-03-29T12:49:32.861Z,7.07
2023-03-29T12:54:35.706Z,7.14
2023-03-29T12:59:43.865Z,7.28
2023-03-29T13:04:55.867Z,7.34
2023-03-29T13:10:05.351Z,7.48
2023-03-29T13:15:24.838Z,7.48
2023-03-29T13:21:00.001Z,7.49
2023-03-29T13:26:22.175Z,7.59
2023-03-29T13:31:52.534Z,7.73
2023-03-29T13:36:57.916Z,7.91
2023-03-29T13:42:19.928Z,7.92
2023-03-29T13:47:25.730Z,7.95
2023-03-29T13:52:37.121Z,8.13
2023-03-29T13:57:56.875Z,8.27
2023-03-29T14:03:02.275Z,8.28
2023-03-29T14:08:08.888Z,8.29
2023-03-29T14:13:18.288Z,8.23
2023-03-29T14:18:24.084Z,8.34
2023-03-29T14:23:33.799Z,8.53
2023-03-29T14:28:37.717Z,8.63
2023-03-29T14:33:40.682Z,8.88
2023-03-29T14:38:49.057Z,9.32
2023-03-29T14:43:52.040Z,9.46
2023-03-29T14:48:56.563Z,9.49
2023-03-29T14:54:03.309Z,10.05
2023-03-29T14:59:27.547Z,10.73
2023-03-29T15:04:37.634Z,11.35
2023-03-29T15:09:40.869Z,11.55
2023-03-29T15:14:44.023Z,11.00
2023-03-29T15:19:47.032Z,10.39
2023-03-29T15:24:50.245Z,9.82
2023-03-29T15:30:02.937Z,9.34
2023-03-29T15:35:09.360Z,8.80
2023-03-29T15:40:26.511Z,8.41
2023-03-29T15:45:29.501Z,8.11
2023-03-29T15:50:32.712Z,7.88
2023-03-29T15:55:35.824Z,7.70
2023-03-29T16:00:41.809Z,7.53
2023-03-29T16:05:45.501Z,7.33
2023-03-29T16:10:49.469Z,7.14
2023-03-29T16:15:52.451Z,6.93
2023-03-29T16:20:55.561Z,6.74
2023-03-29T16:25:59.497Z,6.59
2023-03-29T16:31:02.393Z,6.46
2023-03-29T16:36:05.912Z,6.35
2023-03-29T16:41:14.984Z,6.25
2023-03-29T16:46:17.934Z,6.15
2023-03-29T16:51:21.792Z,6.03
2023-03-29T16:56:24.706Z,5.91
2023-03-29T17:01:28.150Z,5.79
2023-03-29T17:06:32.797Z,5.66
2023-03-29T17:11:36.399Z,5.52
2023-03-29T17:16:39.457Z,5.38
2023-03-29T17:21:42.601Z,5.23
2023-03-29T17:26:45.968Z,5.08
2023-03-29T17:31:49.278Z,4.94
2023-03-29T17:36:53.544Z,4.82
2023-03-29T17:41:56.761Z,4.70
2023-03-29T17:47:01.085Z,4.59
2023-03-29T17:52:04.413Z,4.49
2023-03-29T17:57:07.621Z,4.39
2023-03-29T18:02:21.411Z,4.30
2023-03-29T18:07:24.588Z,4.23
2023-03-29T18:12:28.858Z,4.16
2023-03-29T18:17:31.750Z,4.09
2023-03-29T18:22:34.633Z,4.00
2023-03-29T18:27:39.134Z,3.92
2023-03-29T18:32:42.251Z,3.87
2023-03-29T18:37:45.200Z,3.84
2023-03-29T18:42:48.094Z,3.80
2023-03-29T18:47:51.220Z,3.80
2023-03-29T18:52:54.313Z,3.79
2023-03-29T18:57:57.217Z,3.77
2023-03-29T19:03:00.232Z,3.74
2023-03-29T19:08:05.865Z,3.74
2023-03-29T19:13:08.917Z,3.76
2023-03-29T19:18:12.007Z,3.78
2023-03-29T19:23:14.911Z,3.83
2023-03-29T19:28:17.815Z,3.88
2023-03-29T19:33:21.634Z,3.91
2023-03-29T19:38:24.852Z,3.91
2023-03-29T19:43:27.755Z,3.88
2023-03-29T19:48:30.843Z,3.86
2023-03-29T19:53:38.194Z,3.83
2023-03-29T19:58:42.309Z,3.80
2023-03-29T20:03:46.555Z,3.76
2023-03-29T20:08:49.837Z,3.70
2023-03-29T20:13:52.741Z,3.62
2023-03-29T20:18:56.542Z,3.50
2023-03-29T20:23:59.477Z,3.36
2023-03-29T20:29:03.420Z,3.22
2023-03-29T20:34:06.304Z,3.12
2023-03-29T20:39:09.622Z,3.05
2023-03-29T20:44:13.782Z,3.01
2023-03-29T20:49:17.675Z,2.98
2023-03-29T20:54:20.487Z,2.95
2023-03-29T20:59:23.491Z,2.91
2023-03-29T21:04:27.085Z,2.89
2023-03-29T21:09:31.239Z,2.87
2023-03-29T21:14:34.244Z,4.70
2023-03-29T21:19:39.195Z,9.23
2023-03-29T21:24:42.117Z,8.41
2023-03-29T21:29:45.313Z,6.62
2023-03-29T21:34:48.215Z,5.77
2023-03-29T21:39:51.117Z,5.25
2023-03-29T21:44:54.120Z,4.83
2023-03-29T21:49:57.015Z,4.52
2023-03-29T21:54:59.928Z,4.29
2023-03-29T22:00:05.177Z,4.13
2023-03-29T22:05:08.681Z,3.99
2023-03-29T22:10:12.557Z,3.85
2023-03-29T22:15:15.436Z,3.73
2023-03-29T22:20:18.606Z,3.64
2023-03-29T22:25:23.055Z,3.58
2023-03-29T22:30:25.898Z,3.53
2023-03-29T22:35:28.796Z,5.43
2023-03-29T22:40:33.437Z,9.86
2023-03-29T22:45:36.560Z,9.25
2023-03-29T22:50:42.975Z,7.38
2023-03-29T22:55:46.898Z,6.35
2023-03-29T23:00:50.097Z,5.68
2023-03-29T23:05:55.951Z,5.20
2023-03-29T23:10:59.369Z,4.95
2023-03-29T23:16:03.773Z,4.90
2023-03-29T23:21:08.969Z,4.89
2023-03-29T23:26:12.058Z,4.90
2023-03-29T23:31:18.375Z,4.90
2023-03-29T23:36:23.191Z,4.90
2023-03-29T23:41:30.861Z,4.90
2023-03-29T23:46:34.107Z,4.89
2023-03-29T23:51:39.249Z,4.90
2023-03-29T23:56:42.304Z,4.92
